createdAt,value
2018-11-23T00:01:07.410Z,31.90
2018-11-23T00:03:37.313Z,30.88
2018-11-23T00:06:07.238Z,32.13
2018-11-23T00:08:39.102Z,34.60
2018-11-23T00:11:09.032Z,31.07
2018-11-23T00:13:38.926Z,31.00
2018-11-23T00:16:08.910Z,33.00
2018-11-23T00:18:38.750Z,28.38
2018-11-23T00:21:09.593Z,32.25
2018-11-23T00:23:39.501Z,35.30
2018-11-23T00:26:09.446Z,34.60
2018-11-23T00:28:40.393Z,33.15
2018-11-23T00:31:10.290Z,34.92
2018-11-23T00:33:40.181Z,34.40
2018-11-23T00:36:10.090Z,28.35
2018-11-23T00:38:39.969Z,31.87
2018-11-23T00:41:09.862Z,32.40
2018-11-23T00:43:39.971Z,33.20
2018-11-23T00:46:09.855Z,32.58
2018-11-23T00:48:39.734Z,34.18
2018-11-23T00:51:13.028Z,32.45
2018-11-23T00:53:42.890Z,30.62
2018-11-23T00:56:12.813Z,32.98
2018-11-23T00:58:42.706Z,32.55
2018-11-23T01:01:12.593Z,32.40
2018-11-23T01:03:42.481Z,33.42
2018-11-23T01:06:13.347Z,34.25
2018-11-23T01:08:44.258Z,36.85
2018-11-23T01:11:15.130Z,31.30
2018-11-23T01:13:45.030Z,34.38
2018-11-23T01:16:15.884Z,34.15
2018-11-23T01:18:45.741Z,35.15
2018-11-23T01:21:15.582Z,33.75
2018-11-23T01:23:45.409Z,36.35
2018-11-23T01:26:15.225Z,37.70
2018-11-23T01:28:45.085Z,33.63
2018-11-23T01:31:16.223Z,34.18
2018-11-23T01:33:46.134Z,33.90
2018-11-23T01:36:16.038Z,32.45
2018-11-23T01:38:45.906Z,32.58
2018-11-23T01:41:15.714Z,32.88
2018-11-23T01:43:45.566Z,28.92
2018-11-23T01:46:15.423Z,29.85
2018-11-23T01:48:46.268Z,33.02
2018-11-23T01:51:16.134Z,29.70
2018-11-23T01:53:47.926Z,30.15
2018-11-23T01:56:19.790Z,31.95
2018-11-23T01:58:57.549Z,34.13
2018-11-23T02:01:29.390Z,31.17
2018-11-23T02:03:59.302Z,32.58
2018-11-23T02:06:34.762Z,32.45
2018-11-23T02:09:08.838Z,29.85
2018-11-23T02:11:40.733Z,29.42
2018-11-23T02:14:12.550Z,30.08
2018-11-23T02:16:45.917Z,31.07
2018-11-23T02:19:16.762Z,33.13
2018-11-23T02:21:46.614Z,32.58
2018-11-23T02:24:16.522Z,30.95
2018-11-23T02:26:46.431Z,34.83
2018-11-23T02:29:17.282Z,30.70
2018-11-23T02:31:47.202Z,32.05
2018-11-23T02:34:19.066Z,34.27
2018-11-23T02:36:49.930Z,33.00
2018-11-23T02:39:19.642Z,30.75
2018-11-23T02:41:49.486Z,30.68
2018-11-23T02:44:20.254Z,32.13
2018-11-23T02:46:52.117Z,33.00
2018-11-23T02:49:21.931Z,31.50
2018-11-23T02:51:51.726Z,32.63
2018-11-23T02:54:23.494Z,33.60
2018-11-23T02:57:00.386Z,35.38
2018-11-23T02:59:43.543Z,33.13
2018-11-23T03:02:13.410Z,36.63
2018-11-23T03:04:44.287Z,33.85
2018-11-23T03:07:14.163Z,31.15
2018-11-23T03:09:50.850Z,30.48
2018-11-23T03:12:21.666Z,29.60
2018-11-23T03:14:52.463Z,34.70
2018-11-23T03:17:38.751Z,36.80
2018-11-23T03:20:12.862Z,33.10
2018-11-23T03:22:47.589Z,35.03
2018-11-23T03:25:18.439Z,34.53
2018-11-23T03:27:50.324Z,32.53
2018-11-23T03:30:23.242Z,34.03
2018-11-23T03:32:56.590Z,33.00
2018-11-23T03:35:30.055Z,33.90
2018-11-23T03:38:00.871Z,34.48
2018-11-23T03:40:30.845Z,33.53
2018-11-23T03:43:00.623Z,34.00
2018-11-23T03:45:34.490Z,32.05
2018-11-23T03:48:04.419Z,33.38
2018-11-23T03:50:36.315Z,30.95
2018-11-23T03:53:10.867Z,29.85
2018-11-23T03:55:44.871Z,36.70
2018-11-23T03:58:14.651Z,32.53
2018-11-23T04:00:44.530Z,32.60
2018-11-23T04:03:16.339Z,32.80
2018-11-23T04:05:54.828Z,33.48
2018-11-23T04:08:28.651Z,32.23
2018-11-23T04:11:00.456Z,35.08
2018-11-23T04:13:31.327Z,34.55
2018-11-23T04:16:05.346Z,32.98
2018-11-23T04:18:37.246Z,33.92
2018-11-23T04:21:07.503Z,36.77
2018-11-23T04:23:37.378Z,34.55
2018-11-23T04:26:10.850Z,38.05
2018-11-23T04:28:41.735Z,37.48
2018-11-23T04:31:11.651Z,35.00
2018-11-23T04:33:41.507Z,33.38
2018-11-23T04:36:12.999Z,34.83
2018-11-23T04:38:42.891Z,34.50
2018-11-23T04:41:25.955Z,36.98
2018-11-23T04:43:56.843Z,38.55
2018-11-23T04:46:27.713Z,36.40
2018-11-23T04:48:59.591Z,36.55
2018-11-23T04:51:37.103Z,34.50
2018-11-23T04:54:09.014Z,36.93
2018-11-23T04:56:41.647Z,34.67
2018-11-23T04:59:17.675Z,37.35
2018-11-23T05:01:48.647Z,37.65
2018-11-23T05:04:19.065Z,40.83
2018-11-23T05:06:49.916Z,34.45
2018-11-23T05:09:22.831Z,39.30
2018-11-23T05:11:52.767Z,39.23
2018-11-23T05:14:22.643Z,35.98
2018-11-23T05:16:57.795Z,36.85
2018-11-23T05:19:31.715Z,38.40
2018-11-23T05:22:04.639Z,38.17
2018-11-23T05:24:35.526Z,36.05
2018-11-23T05:27:05.887Z,37.40
2018-11-23T05:29:37.266Z,39.33
2018-11-23T05:32:08.231Z,39.08
2018-11-23T05:34:38.159Z,40.52
2018-11-23T05:37:09.012Z,40.88
2018-11-23T05:39:38.891Z,42.53
2018-11-23T05:42:08.792Z,41.42
2018-11-23T05:44:44.679Z,43.48
2018-11-23T05:47:41.491Z,39.60
2018-11-23T05:50:22.772Z,43.02
2018-11-23T05:52:57.844Z,36.68
2018-11-23T05:55:28.780Z,42.33
2018-11-23T05:57:58.778Z,43.83
2018-11-23T06:00:30.251Z,40.25
2018-11-23T06:03:00.024Z,42.55
2018-11-23T06:05:31.826Z,38.30
2018-11-23T06:08:04.955Z,41.92
2018-11-23T06:10:39.218Z,42.48
2018-11-23T06:13:12.326Z,40.12
2018-11-23T06:15:44.610Z,41.35
2018-11-23T06:18:13.130Z,43.87
2018-11-23T06:20:43.078Z,39.70
2018-11-23T06:23:13.911Z,41.18
2018-11-23T06:25:50.990Z,44.00
2018-11-23T06:28:21.170Z,40.95
2018-11-23T06:30:52.022Z,40.25
2018-11-23T06:33:41.252Z,42.83
2018-11-23T06:36:13.203Z,41.35
2018-11-23T06:38:43.093Z,43.02
2018-11-23T06:41:14.990Z,42.55
2018-11-23T06:43:44.854Z,42.65
2018-11-23T06:46:14.766Z,44.48
2018-11-23T06:48:44.638Z,44.48
2018-11-23T06:51:15.494Z,45.43
2018-11-23T06:53:47.301Z,45.38
2018-11-23T06:56:17.151Z,45.28
2018-11-23T06:58:51.483Z,45.55
2018-11-23T07:01:21.354Z,43.28
2018-11-23T07:04:00.630Z,45.55
2018-11-23T07:06:32.498Z,43.23
2018-11-23T07:09:02.651Z,43.45
2018-11-23T07:11:34.610Z,42.60
2018-11-23T07:14:05.583Z,42.45
2018-11-23T07:16:39.614Z,41.35
2018-11-23T07:19:09.421Z,42.08
2018-11-23T07:21:39.325Z,43.50
2018-11-23T07:24:09.170Z,44.60
2018-11-23T07:26:42.638Z,42.15
2018-11-23T07:29:12.506Z,43.45
2018-11-23T07:31:54.694Z,44.75
2018-11-23T07:34:27.832Z,44.05
2018-11-23T07:36:57.618Z,43.90
2018-11-23T07:39:44.522Z,42.85
2018-11-23T07:42:20.566Z,39.30
2018-11-23T07:44:51.395Z,40.35
2018-11-23T07:47:21.194Z,43.33
2018-11-23T07:49:56.290Z,43.40
2018-11-23T07:52:26.078Z,38.70
2018-11-23T07:54:55.854Z,42.38
2018-11-23T07:57:25.782Z,39.78
2018-11-23T07:59:55.566Z,38.83
2018-11-23T08:02:28.882Z,39.70
2018-11-23T08:04:58.700Z,36.88
2018-11-23T08:07:32.634Z,41.00
2018-11-23T08:10:02.702Z,41.63
2018-11-23T08:12:34.562Z,38.15
2018-11-23T08:15:14.454Z,37.78
2018-11-23T08:17:58.171Z,35.55
2018-11-23T08:20:28.078Z,36.17
2018-11-23T08:22:57.982Z,35.80
2018-11-23T08:25:27.883Z,36.45
2018-11-23T08:27:59.690Z,34.23
2018-11-23T08:30:39.440Z,34.05
2018-11-23T08:33:09.206Z,34.00
2018-11-23T08:35:39.998Z,33.80
2018-11-23T08:38:10.833Z,33.95
2018-11-23T08:40:43.726Z,34.78
2018-11-23T08:43:17.719Z,30.85
2018-11-23T08:45:47.582Z,30.37
2018-11-23T08:48:17.454Z,31.45
2018-11-23T08:50:51.410Z,31.07
2018-11-23T08:53:27.952Z,32.10
2018-11-23T08:55:58.182Z,30.55
2018-11-23T08:58:28.026Z,30.15
2018-11-23T09:00:58.043Z,32.45
2018-11-23T09:03:27.830Z,34.10
2018-11-23T09:05:58.607Z,32.85
2018-11-23T09:08:30.389Z,28.85
2018-11-23T09:11:00.274Z,29.10
2018-11-23T09:13:30.114Z,34.15
2018-11-23T09:16:00.922Z,33.25
2018-11-23T09:18:31.818Z,30.27
2018-11-23T09:21:01.675Z,31.97
2018-11-23T09:23:31.428Z,33.33
2018-11-23T09:26:08.982Z,32.30
2018-11-23T09:28:55.946Z,31.73
2018-11-23T09:31:26.836Z,32.90
2018-11-23T09:33:58.255Z,32.80
2018-11-23T09:36:29.079Z,31.70
2018-11-23T09:38:59.850Z,33.55
2018-11-23T09:41:30.622Z,30.25
2018-11-23T09:44:01.935Z,31.93
2018-11-23T09:46:33.355Z,30.57
2018-11-23T09:49:07.990Z,29.55
2018-11-23T09:51:38.822Z,30.23
2018-11-23T09:54:22.044Z,30.37
2018-11-23T09:56:52.834Z,25.68
2018-11-23T09:59:22.622Z,29.52
2018-11-23T10:01:53.507Z,28.15
2018-11-23T10:04:24.326Z,26.97
2018-11-23T10:06:54.142Z,28.85
2018-11-23T10:09:33.508Z,31.33
2018-11-23T10:12:07.342Z,31.27
2018-11-23T10:14:39.154Z,30.85
2018-11-23T10:17:12.738Z,30.70
2018-11-23T10:19:43.551Z,30.75
2018-11-23T10:22:15.480Z,31.42
2018-11-23T10:24:48.374Z,29.98
2018-11-23T10:27:18.190Z,30.52
2018-11-23T10:29:54.989Z,28.90
2018-11-23T10:32:19.142Z,29.20
2018-11-23T10:34:48.987Z,25.30
2018-11-23T10:37:23.018Z,29.92
2018-11-23T10:39:52.906Z,27.82
2018-11-23T10:42:22.836Z,30.50
2018-11-23T10:44:53.654Z,29.50
2018-11-23T10:47:43.019Z,27.70
2018-11-23T10:50:17.159Z,29.37
2018-11-23T10:52:54.962Z,24.80
2018-11-23T10:55:37.822Z,31.02
2018-11-23T10:58:08.843Z,27.42
2018-11-23T11:00:44.030Z,28.77
2018-11-23T11:03:33.887Z,26.70
2018-11-23T11:06:13.422Z,29.72
2018-11-23T11:08:46.775Z,28.55
2018-11-23T11:11:16.696Z,28.15
2018-11-23T11:13:47.527Z,28.42
2018-11-23T11:16:17.471Z,29.37
2018-11-23T11:18:48.350Z,26.80
2018-11-23T11:21:19.195Z,28.85
2018-11-23T11:23:49.056Z,27.05
2018-11-23T11:26:18.935Z,30.20
2018-11-23T11:28:58.654Z,26.93
2018-11-23T11:31:29.647Z,26.93
2018-11-23T11:33:59.510Z,26.02
2018-11-23T11:36:30.375Z,27.98
2018-11-23T11:39:00.274Z,24.80
2018-11-23T11:41:30.083Z,27.02
2018-11-23T11:43:59.864Z,28.05
2018-11-23T11:46:42.313Z,26.10
2018-11-23T11:49:14.155Z,27.37
2018-11-23T11:51:45.930Z,29.75
2018-11-23T11:54:15.817Z,31.02
2018-11-23T11:56:49.414Z,25.75
2018-11-23T11:59:25.622Z,26.17
2018-11-23T12:01:56.515Z,30.70
2018-11-23T12:04:29.415Z,26.80
2018-11-23T12:06:59.239Z,26.75
2018-11-23T12:09:29.135Z,26.65
2018-11-23T12:11:58.964Z,27.80
2018-11-23T12:14:28.834Z,28.90
2018-11-23T12:16:58.606Z,27.98
2018-11-23T12:19:29.480Z,27.85
2018-11-23T12:21:59.303Z,27.40
2018-11-23T12:24:30.582Z,31.70
2018-11-23T12:27:01.443Z,28.30
2018-11-23T12:29:36.883Z,30.20
2018-11-23T12:32:14.458Z,33.00
2018-11-23T12:34:47.144Z,28.07
2018-11-23T12:37:17.958Z,28.92
2018-11-23T12:39:51.831Z,26.65
2018-11-23T12:42:22.902Z,31.60
2018-11-23T12:44:56.419Z,29.37
2018-11-23T12:47:26.322Z,28.83
2018-11-23T12:49:56.238Z,33.08
2018-11-23T12:52:27.055Z,30.02
2018-11-23T12:54:57.891Z,27.70
2018-11-23T12:57:28.699Z,24.87
2018-11-23T12:59:58.579Z,27.07
2018-11-23T13:02:28.411Z,28.20
2018-11-23T13:05:00.195Z,28.67
2018-11-23T13:07:34.323Z,26.35
2018-11-23T13:10:07.062Z,31.45
2018-11-23T13:12:37.943Z,29.48
2018-11-23T13:15:08.779Z,29.75
2018-11-23T13:17:38.604Z,30.10
2018-11-23T13:20:11.555Z,27.20
2018-11-23T13:22:42.455Z,30.12
2018-11-23T13:25:17.619Z,27.42
2018-11-23T13:27:47.471Z,28.45
2018-11-23T13:30:25.434Z,28.55
2018-11-23T13:32:58.403Z,30.70
2018-11-23T13:35:29.272Z,26.48
2018-11-23T13:37:59.102Z,29.67
2018-11-23T13:40:31.430Z,31.82
2018-11-23T13:43:15.939Z,29.35
2018-11-23T13:45:45.861Z,30.12
2018-11-23T13:48:19.844Z,30.30
2018-11-23T13:50:46.618Z,29.45
2018-11-23T13:53:16.555Z,29.07
2018-11-23T13:55:46.840Z,28.25
2018-11-23T13:58:17.679Z,28.80
2018-11-23T14:00:49.523Z,27.37
2018-11-23T14:03:22.351Z,30.48
2018-11-23T14:05:52.367Z,27.42
2018-11-23T14:08:27.203Z,27.58
2018-11-23T14:10:57.023Z,26.15
2018-11-23T14:13:30.363Z,27.48
2018-11-23T14:16:01.207Z,29.57
2018-11-23T14:18:31.087Z,23.95
2018-11-23T14:21:00.915Z,24.25
2018-11-23T14:23:40.299Z,26.70
2018-11-23T14:26:13.731Z,26.65
2018-11-23T14:28:44.539Z,24.87
2018-11-23T14:31:15.425Z,26.20
2018-11-23T14:33:46.207Z,28.47
2018-11-23T14:36:19.655Z,25.32
2018-11-23T14:38:50.539Z,24.07
2018-11-23T14:41:23.383Z,27.55
2018-11-23T14:43:53.279Z,28.83
2018-11-23T14:46:23.088Z,26.52
2018-11-23T14:48:52.875Z,27.37
2018-11-23T14:51:22.655Z,28.62
2018-11-23T14:53:52.439Z,27.62
2018-11-23T14:56:22.339Z,25.60
2018-11-23T14:58:52.116Z,24.37
2018-11-23T15:01:22.992Z,26.95
2018-11-23T15:03:52.771Z,29.15
2018-11-23T15:06:22.523Z,27.98
2018-11-23T15:08:52.408Z,26.02
2018-11-23T15:11:22.219Z,26.12
2018-11-23T15:13:52.059Z,24.67
2018-11-23T15:16:21.839Z,27.05
2018-11-23T15:18:51.639Z,27.30
2018-11-23T15:21:22.431Z,28.17
2018-11-23T15:23:52.299Z,28.90
2018-11-23T15:26:23.475Z,26.73
2018-11-23T15:28:53.375Z,26.17
2018-11-23T15:34:02.675Z,26.02
2018-11-23T15:36:32.891Z,25.05
2018-11-23T15:39:04.455Z,26.70
2018-11-23T15:41:34.363Z,27.85
2018-11-23T15:44:09.835Z,28.20
2018-11-23T15:46:40.691Z,27.93
2018-11-23T15:49:10.512Z,28.17
2018-11-23T15:51:40.419Z,42.13
2018-11-23T15:54:12.675Z,44.50
2018-11-23T15:56:48.243Z,31.57
2018-11-23T15:59:20.059Z,30.95
2018-11-23T16:01:49.929Z,29.50
2018-11-23T16:04:20.699Z,28.40
2018-11-23T16:06:54.007Z,29.37
2018-11-23T16:09:24.827Z,31.62
2018-11-23T16:11:55.731Z,30.20
2018-11-23T16:14:26.972Z,31.90
2018-11-23T16:16:57.771Z,32.55
2018-11-23T16:19:28.527Z,30.32
2018-11-23T16:22:09.615Z,30.77
2018-11-23T16:24:43.519Z,31.33
2018-11-23T16:27:20.409Z,32.33
2018-11-23T16:29:56.719Z,33.08
2018-11-23T16:32:30.464Z,32.42
2018-11-23T16:35:00.327Z,28.40
2018-11-23T16:37:37.072Z,29.15
2018-11-23T16:40:14.063Z,28.52
2018-11-23T16:42:44.959Z,29.40
2018-11-23T16:45:21.868Z,28.20
2018-11-23T16:47:54.666Z,27.93
2018-11-23T16:50:31.271Z,29.92
2018-11-23T16:53:05.959Z,31.42
2018-11-23T16:55:53.600Z,30.85
2018-11-23T16:58:23.479Z,31.30
2018-11-23T17:00:53.340Z,34.48
2018-11-23T17:03:24.221Z,30.40
2018-11-23T17:05:56.093Z,32.00
2018-11-23T17:08:27.903Z,30.30
2018-11-23T17:10:57.715Z,30.32
2018-11-23T17:13:31.939Z,32.73
2018-11-23T17:16:07.451Z,28.75
2018-11-23T17:18:37.311Z,34.20
2018-11-23T17:21:07.211Z,29.35
2018-11-23T17:23:38.236Z,30.10
2018-11-23T17:26:19.963Z,29.75
2018-11-23T17:28:54.068Z,30.80
2018-11-23T17:31:28.299Z,29.27
2018-11-23T17:33:58.747Z,29.72
2018-11-23T17:36:38.788Z,28.40
2018-11-23T17:39:10.851Z,28.65
2018-11-23T17:41:41.747Z,30.20
2018-11-23T17:44:13.580Z,31.20
2018-11-23T17:46:44.431Z,28.95
2018-11-23T17:49:15.247Z,32.20
2018-11-23T17:51:45.036Z,32.60
2018-11-23T17:54:15.911Z,30.55
2018-11-23T17:56:46.760Z,31.42
2018-11-23T17:59:17.555Z,30.10
2018-11-23T18:01:53.223Z,33.02
2018-11-23T18:04:23.075Z,34.15
2018-11-23T18:06:57.373Z,30.92
2018-11-23T18:09:27.404Z,34.60
2018-11-23T18:11:58.220Z,32.67
2018-11-23T18:14:31.239Z,35.38
2018-11-23T18:17:03.287Z,35.08
2018-11-23T18:19:33.192Z,32.05
2018-11-23T18:22:04.048Z,34.90
2018-11-23T18:24:33.799Z,37.80
2018-11-23T18:27:03.631Z,36.53
2018-11-23T18:29:33.460Z,39.33
2018-11-23T18:32:06.812Z,37.13
2018-11-23T18:34:37.628Z,36.58
2018-11-23T18:37:11.380Z,35.20
2018-11-23T18:39:42.548Z,35.90
2018-11-23T18:42:12.463Z,37.58
2018-11-23T18:44:48.080Z,36.80
2018-11-23T18:47:17.971Z,35.20
2018-11-23T18:49:49.796Z,34.38
2018-11-23T18:52:25.604Z,37.80
2018-11-23T18:54:57.392Z,37.38
2018-11-23T18:57:32.700Z,36.45
2018-11-23T19:00:02.575Z,37.48
2018-11-23T19:02:55.040Z,35.80
2018-11-23T19:05:27.607Z,37.08
2018-11-23T19:07:57.502Z,33.70
2018-11-23T19:10:27.432Z,38.20
2018-11-23T19:12:57.379Z,36.75
2018-11-23T19:15:29.263Z,34.25
2018-11-23T19:18:07.116Z,37.75
2018-11-23T19:20:55.464Z,36.95
2018-11-23T19:23:34.773Z,37.33
2018-11-23T19:26:07.207Z,35.70
2018-11-23T19:28:38.100Z,33.15
2018-11-23T19:31:12.141Z,38.08
2018-11-23T19:33:45.268Z,35.65
2018-11-23T19:36:15.144Z,37.55
2018-11-23T19:38:46.015Z,38.17
2018-11-23T19:41:17.163Z,37.45
2018-11-23T19:43:46.984Z,38.48
2018-11-23T19:46:16.880Z,39.03
2018-11-23T19:48:47.836Z,36.83
2018-11-23T19:51:19.716Z,39.65
2018-11-23T19:53:49.587Z,40.10
2018-11-23T19:56:19.868Z,37.00
2018-11-23T19:58:49.764Z,41.25
2018-11-23T20:01:23.477Z,39.50
2018-11-23T20:03:56.599Z,40.35
2018-11-23T20:06:30.419Z,40.17
2018-11-23T20:09:00.522Z,38.23
2018-11-23T20:11:35.031Z,42.88
2018-11-23T20:14:08.988Z,38.33
2018-11-23T20:16:39.080Z,37.65
2018-11-23T20:19:09.968Z,40.88
2018-11-23T20:21:44.316Z,37.38
2018-11-23T20:24:14.161Z,35.98
2018-11-23T20:26:44.152Z,36.90
2018-11-23T20:29:16.092Z,38.88
2018-11-23T20:31:47.585Z,36.42
2018-11-23T20:34:18.576Z,36.25
2018-11-23T20:36:48.471Z,36.25
2018-11-23T20:39:19.377Z,35.98
2018-11-23T20:41:55.240Z,37.98
2018-11-23T20:44:25.628Z,38.73
2018-11-23T20:46:57.660Z,36.28
2018-11-23T20:49:27.564Z,38.48
2018-11-23T20:51:57.424Z,37.00
2018-11-23T20:54:30.544Z,35.48
2018-11-23T20:57:03.928Z,38.78
2018-11-23T20:59:38.757Z,36.08
2018-11-23T21:02:05.913Z,34.92
2018-11-23T21:04:37.723Z,34.88
2018-11-23T21:07:07.568Z,35.78
2018-11-23T21:09:37.340Z,34.80
2018-11-23T21:12:08.208Z,35.35
2018-11-23T21:14:39.032Z,34.80
2018-11-23T21:17:08.856Z,37.88
2018-11-23T21:19:39.708Z,39.20
2018-11-23T21:22:11.608Z,34.40
2018-11-23T21:24:41.505Z,36.35
2018-11-23T21:27:11.388Z,39.00
2018-11-23T21:29:41.344Z,34.40
2018-11-23T21:32:12.236Z,36.63
2018-11-23T21:34:43.088Z,33.92
2018-11-23T21:37:13.020Z,36.58
2018-11-23T21:39:43.018Z,38.00
2018-11-23T21:42:13.712Z,34.95
2018-11-23T21:44:49.120Z,36.15
2018-11-23T21:47:20.940Z,36.20
2018-11-23T21:49:50.840Z,36.53
2018-11-23T21:52:20.680Z,37.60
2018-11-23T21:54:55.811Z,38.20
2018-11-23T21:57:27.640Z,35.00
2018-11-23T21:59:57.746Z,35.38
2018-11-23T22:02:28.124Z,37.85
2018-11-23T22:05:00.196Z,33.13
2018-11-23T22:07:31.108Z,33.50
2018-11-23T22:10:00.920Z,34.98
2018-11-23T22:12:31.712Z,36.45
2018-11-23T22:15:09.248Z,31.97
2018-11-23T22:17:39.226Z,32.42
2018-11-23T22:20:17.097Z,31.93
2018-11-23T22:22:48.968Z,32.13
2018-11-23T22:25:21.281Z,33.20
2018-11-23T22:27:53.185Z,32.78
2018-11-23T22:30:29.000Z,32.73
2018-11-23T22:32:59.249Z,29.85
2018-11-23T22:35:33.064Z,30.52
2018-11-23T22:38:03.984Z,32.63
2018-11-23T22:40:34.948Z,32.10
2018-11-23T22:43:06.137Z,31.10
2018-11-23T22:45:38.004Z,31.15
2018-11-23T22:48:11.084Z,31.40
2018-11-23T22:50:40.912Z,31.15
2018-11-23T22:53:11.833Z,34.38
2018-11-23T22:55:44.392Z,28.60
2018-11-23T22:58:16.188Z,30.17
2018-11-23T23:00:46.188Z,33.35
2018-11-23T23:03:16.040Z,27.95
2018-11-23T23:05:45.932Z,28.35
2018-11-23T23:08:15.904Z,27.52
2018-11-23T23:10:46.772Z,28.25
2018-11-23T23:13:16.666Z,28.30
2018-11-23T23:15:51.577Z,29.67
2018-11-23T23:18:23.468Z,30.17
2018-11-23T23:20:55.408Z,26.95
2018-11-23T23:23:25.544Z,26.37
2018-11-23T23:25:56.304Z,26.95
2018-11-23T23:28:27.781Z,29.90
2018-11-23T23:31:00.749Z,28.70
2018-11-23T23:33:31.526Z,26.87
2018-11-23T23:36:02.433Z,28.12
2018-11-23T23:38:33.545Z,26.75
2018-11-23T23:41:03.442Z,26.70
2018-11-23T23:43:34.292Z,28.10
2018-11-23T23:46:06.154Z,25.65
2018-11-23T23:48:36.053Z,26.33
2018-11-23T23:51:06.824Z,26.07
2018-11-23T23:53:36.712Z,28.00
2018-11-23T23:56:07.261Z,26.62
2018-11-23T23:58:38.034Z,23.80
